Time;durP1;ratioP1;P1;durP2;ratioP2;P2;SDS_P1;SDS_P2;PMS_P1;PMS_P2;Temp;Humidity;BMP_temperature;BMP_pressure;BME280_temperature;BME280_humidity;BME280_pressure;Samples;Min_cycle;Max_cycle;Signal;HPM_P1;HPM_P2
2021/07/09 00:02:40;;;;;;;4.63;1.83;;;16.50;99.90;;;;;;4997078;28;20556;-83
2021/07/09 00:05:06;;;;;;;5.15;1.85;;;16.50;99.90;;;;;;4979337;28;20034;-83
2021/07/09 00:07:32;;;;;;;4.15;1.95;;;16.50;99.90;;;;;;4978203;28;20076;-82
2021/07/09 00:09:58;;;;;;;3.58;2.15;;;16.40;99.90;;;;;;4978917;28;20026;-82
2021/07/09 00:12:23;;;;;;;5.43;2.05;;;16.40;99.90;;;;;;4978495;28;20031;-83
2021/07/09 00:14:49;;;;;;;7.28;1.90;;;16.30;99.90;;;;;;4978569;28;20022;-83
2021/07/09 00:17:15;;;;;;;4.80;1.75;;;16.40;99.90;;;;;;4996021;28;20106;-82
2021/07/09 00:19:41;;;;;;;5.35;1.92;;;16.40;99.90;;;;;;4978477;28;20022;-82
2021/07/09 00:22:07;;;;;;;3.55;2.10;;;16.40;99.90;;;;;;4996137;28;20466;-82
2021/07/09 00:24:33;;;;;;;6.47;1.95;;;16.40;99.90;;;;;;4995783;28;20030;-82
2021/07/09 00:27:01;;;;;;;2.25;1.60;;;16.50;99.90;;;;;;4996613;28;20462;-83
2021/07/09 00:29:26;;;;;;;3.53;1.67;;;16.50;99.90;;;;;;4979000;28;20057;-83
2021/07/09 00:31:52;;;;;;;3.35;2.10;;;16.50;99.90;;;;;;4978899;28;20057;-83
2021/07/09 00:34:19;;;;;;;1.65;1.42;;;16.40;99.90;;;;;;4978744;28;20022;-82
2021/07/09 00:36:45;;;;;;;2.05;1.60;;;16.40;99.90;;;;;;4996287;28;20093;-82
2021/07/09 00:39:11;;;;;;;3.58;1.73;;;16.50;99.90;;;;;;4996606;28;20422;-82
2021/07/09 00:41:36;;;;;;;4.07;1.98;;;16.40;99.90;;;;;;4978714;28;20030;-82
2021/07/09 00:44:04;;;;;;;5.57;2.00;;;16.50;99.90;;;;;;4978630;28;20066;-83
2021/07/09 00:46:38;;;;;;;8.10;1.80;;;16.50;99.90;;;;;;4978858;28;20470;-82
2021/07/09 00:49:05;;;;;;;5.60;1.75;;;16.60;99.90;;;;;;4996344;28;20023;-83
2021/07/09 00:51:32;;;;;;;5.07;1.90;;;16.60;99.90;;;;;;4996000;28;20035;-83
2021/07/09 00:53:58;;;;;;;3.40;1.73;;;16.50;99.90;;;;;;4978435;28;20026;-82
2021/07/09 00:56:24;;;;;;;3.10;1.60;;;16.40;99.90;;;;;;4978183;28;20054;-82
2021/07/09 00:58:52;;;;;;;6.35;1.70;;;16.40;99.90;;;;;;4978378;28;20033;-83
2021/07/09 01:01:18;;;;;;;7.72;1.60;;;16.50;99.90;;;;;;4977590;28;20037;-83
2021/07/09 01:03:44;;;;;;;4.80;1.63;;;16.40;99.90;;;;;;4978424;28;20134;-83
2021/07/09 01:06:11;;;;;;;3.00;1.80;;;16.50;99.90;;;;;;4978237;28;20026;-82
2021/07/09 01:08:37;;;;;;;4.53;1.55;;;16.50;99.90;;;;;;4978166;28;20054;-83
2021/07/09 01:11:03;;;;;;;1.90;1.33;;;16.40;99.90;;;;;;4978303;28;20054;-82
2021/07/09 01:13:29;;;;;;;6.20;1.45;;;16.50;99.90;;;;;;4977906;28;20034;-82
2021/07/09 01:15:55;;;;;;;4.78;1.48;;;16.60;99.90;;;;;;4978200;28;20089;-82
2021/07/09 01:18:21;;;;;;;3.95;1.50;;;16.50;99.90;;;;;;4978281;28;20117;-83
2021/07/09 01:20:47;;;;;;;7.35;1.83;;;16.50;99.90;;;;;;4978405;28;20023;-82
2021/07/09 01:23:16;;;;;;;1.90;1.40;;;16.40;99.90;;;;;;4996016;28;20026;-82
2021/07/09 01:25:42;;;;;;;5.03;1.88;;;16.30;99.90;;;;;;4995762;28;20033;-82
2021/07/09 01:28:08;;;;;;;4.43;2.03;;;16.30;99.90;;;;;;4995778;28;20026;-82
2021/07/09 01:30:36;;;;;;;2.30;1.58;;;16.30;99.90;;;;;;4977859;28;20549;-83
2021/07/09 01:33:02;;;;;;;2.80;1.80;;;16.30;99.90;;;;;;4978402;28;20096;-83
2021/07/09 01:35:28;;;;;;;2.88;1.77;;;16.30;99.90;;;;;;4978468;28;20022;-83
2021/07/09 01:38:05;;;;;;;5.05;1.80;;;16.30;99.90;;;;;;4979039;28;20026;-83
2021/07/09 01:40:32;;;;;;;6.65;1.80;;;16.20;99.90;;;;;;4995686;28;20023;-83
2021/07/09 01:42:58;;;;;;;3.50;1.70;;;16.30;99.90;;;;;;4995707;28;20153;-83
2021/07/09 01:45:25;;;;;;;1.85;1.30;;;16.30;99.90;;;;;;4978233;28;20504;-83
2021/07/09 01:47:52;;;;;;;4.80;1.40;;;16.30;99.90;;;;;;4978035;28;20034;-82
2021/07/09 01:50:20;;;;;;;3.15;1.60;;;16.40;99.90;;;;;;4978632;28;20034;-82
2021/07/09 01:52:46;;;;;;;2.10;1.50;;;16.30;99.90;;;;;;4978698;28;20062;-83
2021/07/09 01:55:14;;;;;;;2.38;1.40;;;16.30;99.90;;;;;;4995368;28;20026;-83
2021/07/09 01:57:40;;;;;;;6.15;1.40;;;16.40;99.90;;;;;;4995645;28;20058;-83
2021/07/09 02:00:09;;;;;;;4.60;1.73;;;16.30;99.90;;;;;;4978895;28;20030;-83
2021/07/09 02:02:36;;;;;;;2.67;1.48;;;16.30;99.90;;;;;;4977898;28;20046;-83
2021/07/09 02:05:07;;;;;;;12.60;1.90;;;16.20;99.90;;;;;;4977835;28;20038;-83
2021/07/09 02:07:32;;;;;;;3.53;1.67;;;16.30;99.90;;;;;;4977602;28;20033;-83
2021/07/09 02:09:59;;;;;;;2.60;1.52;;;16.30;99.90;;;;;;4977250;28;20026;-82
2021/07/09 02:12:26;;;;;;;6.93;1.65;;;16.20;99.90;;;;;;4977374;28;20108;-83
2021/07/09 02:14:53;;;;;;;4.25;1.83;;;16.20;99.90;;;;;;4977058;28;20022;-82
2021/07/09 02:17:20;;;;;;;3.92;1.50;;;16.30;99.90;;;;;;4977841;28;20363;-83
2021/07/09 02:19:48;;;;;;;1.77;1.60;;;16.20;99.90;;;;;;4978060;28;20434;-83
2021/07/09 02:22:15;;;;;;;5.53;2.03;;;16.30;99.90;;;;;;4978270;28;20036;-83
2021/07/09 02:24:43;;;;;;;2.92;1.40;;;16.20;99.90;;;;;;4977512;28;20064;-83
2021/07/09 02:27:10;;;;;;;3.50;1.50;;;16.10;99.90;;;;;;4977236;28;20030;-83
2021/07/09 02:29:36;;;;;;;2.95;1.67;;;16.20;99.90;;;;;;4977530;28;20039;-83
2021/07/09 02:32:05;;;;;;;4.00;1.67;;;16.20;99.90;;;;;;4977773;28;20031;-82
2021/07/09 02:34:31;;;;;;;2.40;1.50;;;16.10;99.90;;;;;;4995996;28;20022;-83
2021/07/09 02:36:57;;;;;;;4.68;1.50;;;16.10;99.90;;;;;;4977351;28;20023;-83
2021/07/09 02:39:27;;;;;;;6.55;1.45;;;16.20;99.90;;;;;;4977593;28;20046;-83
2021/07/09 02:41:54;;;;;;;3.03;1.65;;;16.20;99.90;;;;;;4977336;28;20117;-83
2021/07/09 02:44:20;;;;;;;3.33;1.60;;;16.20;99.90;;;;;;4977235;28;20030;-83
2021/07/09 02:46:46;;;;;;;6.57;1.77;;;16.20;99.90;;;;;;4977197;28;20512;-83
2021/07/09 02:49:12;;;;;;;6.57;1.70;;;16.20;99.90;;;;;;4977319;28;20026;-83
2021/07/09 02:51:38;;;;;;;3.25;1.50;;;16.10;99.90;;;;;;4994695;28;20037;-83
2021/07/09 02:54:04;;;;;;;3.78;1.60;;;16.10;99.90;;;;;;4977239;28;20023;-83
2021/07/09 02:56:29;;;;;;;7.53;2.10;;;16.10;99.90;;;;;;4977131;28;20027;-83
2021/07/09 02:58:55;;;;;;;4.43;1.80;;;16.10;99.90;;;;;;4977165;28;20437;-83
2021/07/09 03:01:21;;;;;;;4.35;1.73;;;16.10;99.90;;;;;;4993983;28;20042;-82
2021/07/09 03:03:47;;;;;;;4.55;1.90;;;16.00;99.90;;;;;;4977024;28;20025;-83
2021/07/09 03:06:12;;;;;;;3.38;1.67;;;16.00;99.90;;;;;;4977140;28;20022;-83
2021/07/09 03:08:39;;;;;;;3.53;1.80;;;16.10;99.90;;;;;;4977508;28;20375;-83
2021/07/09 03:11:05;;;;;;;4.43;1.90;;;16.00;99.90;;;;;;4994713;28;20022;-83
2021/07/09 03:13:30;;;;;;;6.13;1.88;;;16.00;99.90;;;;;;4994476;28;20035;-83
2021/07/09 03:15:56;;;;;;;4.57;2.10;;;16.00;99.90;;;;;;4976824;28;20039;-82
2021/07/09 03:18:22;;;;;;;4.68;2.10;;;16.00;99.90;;;;;;4976635;28;20113;-83
2021/07/09 03:20:47;;;;;;;3.15;2.28;;;16.00;99.90;;;;;;4977127;28;20074;-83
2021/07/09 03:23:13;;;;;;;4.10;2.00;;;16.10;99.90;;;;;;4976841;28;20033;-82
2021/07/09 03:25:39;;;;;;;4.22;2.13;;;16.10;99.90;;;;;;4980190;28;20030;-83
2021/07/09 03:28:04;;;;;;;5.53;2.20;;;16.00;99.90;;;;;;4980430;28;20100;-83
2021/07/09 03:30:30;;;;;;;3.97;2.10;;;16.10;99.90;;;;;;4980200;28;20026;-82
2021/07/09 03:32:56;;;;;;;3.15;2.00;;;16.20;99.90;;;;;;4979976;28;20034;-82
2021/07/09 03:35:22;;;;;;;7.88;2.22;;;16.10;99.90;;;;;;4980010;28;20023;-82
2021/07/09 03:37:47;;;;;;;3.35;2.10;;;16.20;99.90;;;;;;4997502;28;20031;-82
2021/07/09 03:40:13;;;;;;;7.18;2.47;;;16.20;99.90;;;;;;4997679;28;20023;-83
2021/07/09 03:42:39;;;;;;;2.58;1.90;;;16.20;99.90;;;;;;4997481;28;20042;-82
2021/07/09 03:45:06;;;;;;;5.32;2.33;;;16.10;99.90;;;;;;4980143;28;20045;-82
2021/07/09 03:47:32;;;;;;;5.78;2.10;;;16.10;99.90;;;;;;4980063;28;20504;-82
2021/07/09 03:49:58;;;;;;;4.57;2.00;;;16.10;99.90;;;;;;4979720;28;20052;-83
2021/07/09 03:52:24;;;;;;;4.80;2.03;;;16.10;99.90;;;;;;4996855;28;20022;-83
2021/07/09 03:54:49;;;;;;;6.47;2.17;;;16.10;99.90;;;;;;4979796;28;20027;-83
2021/07/09 03:57:15;;;;;;;4.32;2.10;;;16.10;99.90;;;;;;4997446;28;20027;-82
2021/07/09 03:59:41;;;;;;;3.85;2.35;;;16.10;99.90;;;;;;4979642;28;20073;-82
2021/07/09 04:02:06;;;;;;;5.18;1.80;;;16.10;99.90;;;;;;4979539;28;20104;-83
2021/07/09 04:04:32;;;;;;;4.30;1.90;;;16.10;99.90;;;;;;4979785;28;20034;-83
2021/07/09 04:06:58;;;;;;;3.78;2.10;;;16.00;99.90;;;;;;4979448;28;20104;-82
2021/07/09 04:09:24;;;;;;;5.70;2.08;;;16.00;99.90;;;;;;4979620;28;20026;-82
2021/07/09 04:11:50;;;;;;;3.17;1.60;;;15.90;99.90;;;;;;4979351;28;20034;-83
2021/07/09 04:14:15;;;;;;;3.92;1.70;;;15.80;99.90;;;;;;4979571;28;20019;-82
2021/07/09 04:16:41;;;;;;;2.58;1.90;;;15.80;99.90;;;;;;4997165;28;20084;-83
2021/07/09 04:19:07;;;;;;;3.00;1.80;;;15.80;99.90;;;;;;4997109;28;20023;-82
2021/07/09 04:21:32;;;;;;;4.45;1.83;;;15.80;99.90;;;;;;4979588;28;20482;-82
2021/07/09 04:23:58;;;;;;;4.63;1.70;;;15.70;99.90;;;;;;4996587;28;20102;-82
2021/07/09 04:26:23;;;;;;;5.75;1.58;;;15.70;99.90;;;;;;4996711;28;20029;-83
2021/07/09 04:28:49;;;;;;;3.67;1.98;;;15.70;99.90;;;;;;4979303;28;20077;-83
2021/07/09 04:31:15;;;;;;;4.68;1.77;;;15.70;99.90;;;;;;4979614;28;20019;-83
2021/07/09 04:33:43;;;;;;;5.95;2.00;;;15.80;99.90;;;;;;4997744;28;20490;-82
2021/07/09 04:36:09;;;;;;;2.85;1.90;;;15.80;99.90;;;;;;4979281;28;20080;-82
2021/07/09 04:38:34;;;;;;;2.67;1.70;;;15.80;99.90;;;;;;4979453;28;20457;-82
2021/07/09 04:41:00;;;;;;;5.55;2.05;;;15.80;99.90;;;;;;4979275;28;20394;-83
2021/07/09 04:43:26;;;;;;;4.68;1.63;;;15.80;99.90;;;;;;4997136;28;20026;-83
2021/07/09 04:45:51;;;;;;;3.25;1.95;;;15.80;99.90;;;;;;4979097;28;20026;-83
2021/07/09 04:48:17;;;;;;;2.63;1.48;;;15.90;99.90;;;;;;4996821;28;20561;-83
2021/07/09 04:50:43;;;;;;;4.80;2.03;;;15.90;99.90;;;;;;4978950;28;20102;-83
2021/07/09 04:53:08;;;;;;;5.97;1.73;;;15.90;99.90;;;;;;4978952;28;20030;-83
2021/07/09 04:55:34;;;;;;;3.28;1.65;;;15.80;99.90;;;;;;4978417;28;20053;-83
2021/07/09 04:58:00;;;;;;;3.70;1.60;;;15.90;99.90;;;;;;4996736;28;20506;-83
2021/07/09 05:00:25;;;;;;;4.80;1.90;;;15.90;99.90;;;;;;4996235;28;20022;-82
2021/07/09 05:02:51;;;;;;;7.53;1.90;;;16.00;99.90;;;;;;4978762;28;20054;-83
2021/07/09 05:05:17;;;;;;;3.58;1.50;;;15.90;99.90;;;;;;4996659;28;20023;-82
2021/07/09 05:07:43;;;;;;;4.43;1.92;;;15.90;99.90;;;;;;4978780;28;20061;-83
2021/07/09 05:10:10;;;;;;;5.68;2.20;;;15.90;99.90;;;;;;4996094;28;20038;-83
2021/07/09 05:12:35;;;;;;;5.63;1.90;;;15.70;99.90;;;;;;4978119;28;20026;-82
2021/07/09 05:15:02;;;;;;;4.30;2.10;;;15.70;99.90;;;;;;4978703;28;20393;-83
2021/07/09 05:17:28;;;;;;;5.07;2.00;;;15.70;99.90;;;;;;4996198;28;20069;-83
2021/07/09 05:19:54;;;;;;;5.95;2.40;;;15.60;99.90;;;;;;4996222;28;20410;-83
2021/07/09 05:22:20;;;;;;;3.53;2.10;;;15.60;99.90;;;;;;4979742;28;20029;-83
2021/07/09 05:24:47;;;;;;;5.60;2.40;;;15.50;99.90;;;;;;4978693;28;20031;-83
2021/07/09 05:27:12;;;;;;;6.05;1.98;;;15.50;99.90;;;;;;4978629;28;20490;-82
2021/07/09 05:29:38;;;;;;;3.97;2.40;;;15.40;99.90;;;;;;4995937;28;20031;-83
2021/07/09 05:32:04;;;;;;;4.82;2.33;;;15.40;99.90;;;;;;4995811;28;20022;-83
2021/07/09 05:34:30;;;;;;;6.53;2.00;;;15.50;99.90;;;;;;4978329;28;20033;-83
2021/07/09 05:36:56;;;;;;;4.10;1.98;;;15.60;99.90;;;;;;4977978;28;20028;-83
2021/07/09 05:39:22;;;;;;;4.15;2.40;;;15.70;99.90;;;;;;4978463;28;20026;-83
2021/07/09 05:41:48;;;;;;;4.10;2.30;;;15.80;99.90;;;;;;4996104;28;20058;-83
2021/07/09 05:44:14;;;;;;;3.08;1.92;;;15.90;99.90;;;;;;4978314;28;20457;-83
2021/07/09 05:46:39;;;;;;;2.78;2.28;;;15.90;99.90;;;;;;4977323;28;20505;-84
2021/07/09 05:49:05;;;;;;;3.65;2.33;;;15.90;99.90;;;;;;4978067;28;20034;-83
2021/07/09 05:51:31;;;;;;;8.60;2.55;;;16.00;99.90;;;;;;4978009;28;20028;-84
2021/07/09 05:53:57;;;;;;;2.45;2.05;;;16.00;99.90;;;;;;4995500;28;20029;-84
2021/07/09 05:56:22;;;;;;;4.07;2.30;;;16.00;99.90;;;;;;4977956;28;20046;-84
2021/07/09 05:58:48;;;;;;;3.10;2.10;;;16.00;99.90;;;;;;4977322;28;20019;-83
2021/07/09 06:01:14;;;;;;;3.35;2.30;;;16.10;99.90;;;;;;4976818;28;20461;-83
2021/07/09 06:03:40;;;;;;;4.65;2.53;;;16.10;99.90;;;;;;4994461;28;20089;-83
2021/07/09 06:06:05;;;;;;;8.35;2.38;;;16.10;99.90;;;;;;4977517;28;20030;-83
2021/07/09 06:08:31;;;;;;;5.32;2.65;;;16.10;99.90;;;;;;4977277;28;20022;-83
2021/07/09 06:10:58;;;;;;;4.40;2.45;;;16.10;99.90;;;;;;4977197;28;20505;-84
2021/07/09 06:13:23;;;;;;;3.53;2.15;;;16.10;99.90;;;;;;4977020;28;20033;-83
2021/07/09 06:15:49;;;;;;;4.10;2.47;;;16.10;99.90;;;;;;4994578;28;20022;-83
2021/07/09 06:18:15;;;;;;;3.33;2.38;;;16.20;99.90;;;;;;4994445;28;20026;-83
2021/07/09 06:20:41;;;;;;;4.55;2.53;;;16.30;99.90;;;;;;4976900;28;20038;-83
2021/07/09 06:23:06;;;;;;;3.60;2.50;;;16.30;99.90;;;;;;4977109;28;20390;-83
2021/07/09 06:25:32;;;;;;;3.97;2.58;;;16.40;99.90;;;;;;4977090;28;20041;-84
2021/07/09 06:27:58;;;;;;;4.15;2.50;;;16.40;99.90;;;;;;4994266;28;20386;-83
2021/07/09 06:30:23;;;;;;;3.63;2.65;;;16.50;99.90;;;;;;4976284;28;20022;-83
2021/07/09 06:32:49;;;;;;;3.22;2.05;;;16.60;99.90;;;;;;4976231;28;20033;-83
2021/07/09 06:35:16;;;;;;;3.03;1.90;;;16.70;99.90;;;;;;4976327;28;20023;-83
2021/07/09 06:37:42;;;;;;;2.80;2.20;;;16.70;99.90;;;;;;4976330;28;20026;-83
2021/07/09 06:40:09;;;;;;;5.95;2.53;;;16.80;99.90;;;;;;4976256;28;20381;-83
2021/07/09 06:42:35;;;;;;;4.22;2.40;;;16.70;99.90;;;;;;4993627;28;20174;-83
2021/07/09 06:45:01;;;;;;;3.65;2.00;;;16.70;99.90;;;;;;4993828;28;20037;-85
2021/07/09 06:47:27;;;;;;;3.67;2.40;;;16.70;99.90;;;;;;4993943;28;20036;-82
2021/07/09 06:49:53;;;;;;;3.45;2.50;;;16.80;99.90;;;;;;4976282;28;20120;-83
2021/07/09 06:52:19;;;;;;;5.82;2.90;;;16.70;99.90;;;;;;4994244;28;20034;-85
2021/07/09 06:54:44;;;;;;;3.53;2.08;;;16.70;99.90;;;;;;4993702;28;20031;-84
2021/07/09 06:57:10;;;;;;;6.90;2.60;;;16.70;99.90;;;;;;4993553;28;20382;-85
2021/07/09 06:59:36;;;;;;;5.32;2.55;;;16.80;99.90;;;;;;4995161;28;20092;-85
2021/07/09 07:02:02;;;;;;;4.63;2.55;;;16.90;99.90;;;;;;4979651;28;20046;-86
2021/07/09 07:04:28;;;;;;;4.13;2.65;;;16.90;99.90;;;;;;4979811;28;20528;-83
2021/07/09 07:06:54;;;;;;;4.88;2.58;;;16.90;99.90;;;;;;4979782;28;20030;-83
2021/07/09 07:09:21;;;;;;;5.45;2.40;;;17.00;99.90;;;;;;4979744;28;20077;-83
2021/07/09 07:11:46;;;;;;;5.97;2.55;;;17.10;99.90;;;;;;4979578;28;20030;-83
2021/07/09 07:14:12;;;;;;;3.83;2.70;;;17.10;99.90;;;;;;4979605;28;20407;-83
2021/07/09 07:16:38;;;;;;;5.32;2.70;;;17.00;99.90;;;;;;4997399;28;20381;-82
2021/07/09 07:19:04;;;;;;;6.75;2.90;;;17.20;99.90;;;;;;4979877;28;20022;-83
2021/07/09 07:21:30;;;;;;;2.70;2.47;;;17.30;99.90;;;;;;4979651;28;20038;-83
2021/07/09 07:23:55;;;;;;;4.57;2.63;;;17.20;99.90;;;;;;4979499;28;20550;-83
2021/07/09 07:26:21;;;;;;;3.13;2.20;;;17.20;99.90;;;;;;4996956;28;20022;-83
2021/07/09 07:28:47;;;;;;;3.67;2.30;;;17.20;99.90;;;;;;4996843;28;20481;-83
2021/07/09 07:31:13;;;;;;;4.85;2.67;;;17.30;99.90;;;;;;4979699;28;20085;-83
2021/07/09 07:33:39;;;;;;;3.45;2.58;;;17.40;99.90;;;;;;4996789;28;20080;-83
2021/07/09 07:36:05;;;;;;;5.60;3.45;;;17.50;99.90;;;;;;4979502;28;20386;-84
2021/07/09 07:38:31;;;;;;;3.67;2.75;;;17.60;99.90;;;;;;4979635;28;20027;-83
2021/07/09 07:40:56;;;;;;;4.35;2.80;;;17.50;99.90;;;;;;4979297;28;20064;-85
2021/07/09 07:43:22;;;;;;;6.93;3.33;;;17.50;99.90;;;;;;4996633;28;20386;-83
2021/07/09 07:45:48;;;;;;;6.03;2.80;;;17.50;99.90;;;;;;4979323;28;20033;-82
2021/07/09 07:48:14;;;;;;;5.65;3.22;;;17.50;99.90;;;;;;4979024;28;20109;-83
2021/07/09 07:50:39;;;;;;;7.72;3.17;;;17.50;99.90;;;;;;4979050;28;20393;-83
2021/07/09 07:53:05;;;;;;;8.43;3.80;;;17.60;99.90;;;;;;4996356;28;20026;-83
2021/07/09 07:55:31;;;;;;;8.77;3.67;;;17.60;99.90;;;;;;4996907;28;20027;-82
2021/07/09 07:57:56;;;;;;;5.53;3.15;;;17.60;99.90;;;;;;4978876;28;20026;-84
2021/07/09 08:00:22;;;;;;;5.40;3.03;;;17.70;99.90;;;;;;4978697;28;20019;-84
2021/07/09 08:02:48;;;;;;;4.13;3.33;;;17.60;99.90;;;;;;4978713;28;20081;-83
2021/07/09 08:05:14;;;;;;;10.77;3.42;;;17.70;99.90;;;;;;4979881;28;20030;-83
2021/07/09 08:07:41;;;;;;;3.67;2.78;;;18.00;99.90;;;;;;4996234;28;20029;-83
2021/07/09 08:10:08;;;;;;;6.60;3.28;;;18.10;99.90;;;;;;4978564;28;20026;-83
2021/07/09 08:12:34;;;;;;;8.30;3.13;;;18.30;99.90;;;;;;4996110;28;20031;-83
2021/07/09 08:15:00;;;;;;;3.20;2.63;;;18.50;99.90;;;;;;4978591;28;20026;-84
2021/07/09 08:17:26;;;;;;;7.20;2.55;;;18.70;99.90;;;;;;4996008;28;20386;-83
2021/07/09 08:19:52;;;;;;;5.38;2.28;;;18.80;99.90;;;;;;4996169;28;20104;-83
2021/07/09 08:22:18;;;;;;;6.22;2.58;;;18.80;99.90;;;;;;4996455;28;20034;-82
2021/07/09 08:24:43;;;;;;;4.50;2.25;;;18.80;99.90;;;;;;4996466;28;20062;-83
2021/07/09 08:27:10;;;;;;;3.90;2.30;;;18.80;99.90;;;;;;4995735;28;20030;-83
2021/07/09 08:29:35;;;;;;;4.72;2.20;;;19.10;99.90;;;;;;4996279;28;20437;-83
2021/07/09 08:32:01;;;;;;;6.90;2.22;;;19.20;99.90;;;;;;4978193;28;20059;-82
2021/07/09 08:34:27;;;;;;;4.25;2.38;;;19.10;99.90;;;;;;4978236;28;20034;-83
2021/07/09 08:36:53;;;;;;;7.05;2.40;;;18.90;99.90;;;;;;4978104;28;20050;-83
2021/07/09 08:39:19;;;;;;;5.15;3.05;;;18.90;99.90;;;;;;4995637;28;20525;-83
2021/07/09 08:41:48;;;;;;;5.35;2.95;;;18.90;99.90;;;;;;4995700;28;20026;-82
2021/07/09 08:44:14;;;;;;;6.88;2.45;;;19.00;99.90;;;;;;4995595;28;20034;-82
2021/07/09 08:46:41;;;;;;;6.70;2.17;;;19.20;99.90;;;;;;4995719;28;20064;-82
2021/07/09 08:49:15;;;;;;;5.18;2.35;;;19.30;99.90;;;;;;4977953;28;20517;-82
2021/07/09 08:51:42;;;;;;;6.93;2.13;;;19.50;99.90;;;;;;4977809;28;20490;-82
2021/07/09 08:54:12;;;;;;;3.33;2.00;;;19.70;99.90;;;;;;4995308;28;20022;-84
2021/07/09 08:56:38;;;;;;;5.13;2.25;;;19.80;99.90;;;;;;4977757;28;20063;-84
2021/07/09 08:59:03;;;;;;;4.20;2.22;;;19.80;99.90;;;;;;4977709;28;20023;-84
2021/07/09 09:01:29;;;;;;;7.75;2.05;;;19.80;99.90;;;;;;4977440;28;20053;-83
2021/07/09 09:04:05;;;;;;;7.03;2.67;;;19.90;99.90;;;;;;4977810;28;20023;-83
2021/07/09 09:06:31;;;;;;;4.65;2.30;;;20.00;99.90;;;;;;4994934;28;20018;-83
2021/07/09 09:08:56;;;;;;;6.75;2.08;;;20.10;99.90;;;;;;4978124;28;20315;-83
2021/07/09 09:11:22;;;;;;;4.05;2.13;;;20.50;99.90;;;;;;4977437;28;20022;-84
2021/07/09 09:13:48;;;;;;;4.45;2.13;;;20.50;99.90;;;;;;4994896;28;20058;-84
2021/07/09 09:16:15;;;;;;;4.15;2.03;;;20.40;99.90;;;;;;4994852;28;20026;-83
2021/07/09 09:18:47;;;;;;;5.10;2.28;;;20.20;99.90;;;;;;4977364;28;20049;-83
2021/07/09 09:21:21;;;;;;;2.72;1.90;;;20.20;99.90;;;;;;4977179;28;20035;-83
2021/07/09 09:23:53;;;;;;;5.00;2.70;;;20.20;99.90;;;;;;4994925;28;20096;-83
2021/07/09 09:26:53;;;;;;;5.18;2.70;;;19.90;99.90;;;;;;4977213;28;20030;-83
2021/07/09 09:29:24;;;;;;;4.68;2.13;;;19.90;99.90;;;;;;4977766;28;20370;-83
2021/07/09 09:31:54;;;;;;;5.38;2.40;;;20.30;99.90;;;;;;4977122;28;20033;-83
2021/07/09 09:34:34;;;;;;;4.57;2.30;;;20.60;99.90;;;;;;4994455;28;20105;-83
2021/07/09 09:37:01;;;;;;;4.07;1.73;;;20.60;99.90;;;;;;4994843;28;20026;-83
2021/07/09 09:39:26;;;;;;;4.45;1.65;;;20.90;99.90;;;;;;4977096;28;20031;-83
2021/07/09 09:42:17;;;;;;;10.55;2.20;;;21.20;99.90;;;;;;4994807;28;20503;-83
2021/07/09 09:44:48;;;;;;;2.95;1.83;;;21.50;99.90;;;;;;4994460;28;20023;-84
2021/07/09 09:47:16;;;;;;;4.50;1.85;;;21.40;99.90;;;;;;4994411;28;20030;-84
2021/07/09 09:49:43;;;;;;;4.70;1.88;;;21.20;99.90;;;;;;4976895;28;20037;-84
2021/07/09 09:52:09;;;;;;;5.35;2.33;;;20.70;99.90;;;;;;4976804;28;20054;-84
2021/07/09 09:54:35;;;;;;;5.95;2.13;;;21.00;99.90;;;;;;4976746;28;20046;-84
2021/07/09 09:57:04;;;;;;;4.53;2.05;;;21.50;99.90;;;;;;4994291;28;20525;-84
2021/07/09 09:59:31;;;;;;;4.35;2.25;;;21.90;99.90;;;;;;4994420;28;20513;-84
2021/07/09 10:02:05;;;;;;;6.07;2.08;;;22.10;99.90;;;;;;4976528;28;20058;-84
2021/07/09 10:04:33;;;;;;;3.80;2.17;;;22.30;99.90;;;;;;4994412;28;20046;-84
2021/07/09 10:07:00;;;;;;;3.20;1.73;;;22.60;99.90;;;;;;4976831;28;20046;-84
2021/07/09 10:09:27;;;;;;;7.68;2.47;;;22.80;99.90;;;;;;4976612;28;20389;-83
2021/07/09 10:11:54;;;;;;;4.63;2.80;;;22.90;99.90;;;;;;4993986;28;20081;-84
2021/07/09 10:14:22;;;;;;;4.47;2.35;;;22.70;99.90;;;;;;4993958;28;20377;-83
2021/07/09 10:16:51;;;;;;;4.07;2.53;;;22.50;99.90;;;;;;4994313;28;20033;-83
2021/07/09 10:19:40;;;;;;;5.47;2.70;;;21.90;99.90;;;;;;4976478;28;20030;-83
2021/07/09 10:22:07;;;;;;;5.55;2.80;;;21.40;99.90;;;;;;4993891;28;20502;-83
2021/07/09 10:24:34;;;;;;;3.90;2.67;;;21.00;99.90;;;;;;4976446;28;20022;-83
2021/07/09 10:27:01;;;;;;;5.45;2.85;;;21.10;99.90;;;;;;4994146;28;20033;-83
2021/07/09 10:29:31;;;;;;;7.10;3.10;;;21.60;99.90;;;;;;4993919;28;20030;-83
2021/07/09 10:31:57;;;;;;;4.32;2.55;;;22.20;99.90;;;;;;4976468;28;20030;-84
2021/07/09 10:34:35;;;;;;;4.32;2.20;;;22.60;99.90;;;;;;4995334;28;20022;-84
2021/07/09 10:37:09;;;;;;;3.85;2.00;;;23.10;99.90;;;;;;4980476;28;20160;-84
2021/07/09 10:39:39;;;;;;;5.65;2.33;;;23.30;99.90;;;;;;4980312;28;20026;-83
2021/07/09 10:42:41;;;;;;;5.95;2.35;;;23.00;99.90;;;;;;4997730;28;20026;-83
2021/07/09 10:45:12;;;;;;;5.00;2.25;;;23.20;99.90;;;;;;4984878;28;20041;-82
2021/07/09 10:47:47;;;;;;;7.65;2.30;;;23.40;99.90;;;;;;4997819;28;20026;-83
2021/07/09 10:50:36;;;;;;;7.60;2.03;;;23.40;99.90;;;;;;4997682;28;20026;-81
2021/07/09 10:53:05;;;;;;;3.83;2.25;;;23.60;99.90;;;;;;4980140;28;20398;-81
2021/07/09 10:55:43;;;;;;;6.25;2.72;;;23.80;99.90;;;;;;4997787;28;20089;-81
2021/07/09 10:58:09;;;;;;;6.35;2.88;;;23.90;99.90;;;;;;4980114;28;20065;-82
2021/07/09 11:00:44;;;;;;;7.03;2.85;;;24.00;99.90;;;;;;4979981;28;20050;-83
2021/07/09 11:03:20;;;;;;;4.50;2.53;;;24.50;99.90;;;;;;4979773;28;20476;-83
2021/07/09 11:05:49;;;;;;;7.35;3.08;;;24.50;99.90;;;;;;4997885;28;20030;-83
2021/07/09 11:08:32;;;;;;;5.28;2.55;;;23.70;99.90;;;;;;4979962;28;20398;-82
2021/07/09 11:11:05;;;;;;;5.25;2.40;;;23.20;99.90;;;;;;4979785;28;20085;-82
2021/07/09 11:13:40;;;;;;;4.88;2.45;;;22.70;99.90;;;;;;4979661;28;20026;-83
2021/07/09 11:16:20;;;;;;;5.00;1.98;;;22.40;99.90;;;;;;4979787;28;20080;-82
2021/07/09 11:18:52;;;;;;;6.82;2.17;;;23.40;99.90;;;;;;4997202;28;20486;-82
2021/07/09 11:21:37;;;;;;;5.20;2.10;;;23.50;99.90;;;;;;4979581;28;20053;-82
2021/07/09 11:24:15;;;;;;;4.30;2.30;;;24.20;99.90;;;;;;4940911;28;20474;-83
2021/07/09 11:26:56;;;;;;;5.78;2.15;;;24.70;99.90;;;;;;4997290;28;20032;-83
2021/07/09 11:29:38;;;;;;;7.25;2.10;;;25.50;99.90;;;;;;4979470;28;20018;-82
2021/07/09 11:32:13;;;;;;;4.97;2.13;;;25.70;99.90;;;;;;4979565;28;20030;-82
2021/07/09 11:34:44;;;;;;;4.72;2.17;;;25.90;99.90;;;;;;4997380;28;20023;-83
2021/07/09 11:37:16;;;;;;;3.95;2.00;;;25.80;99.90;;;;;;4996776;28;20018;-83
2021/07/09 11:39:46;;;;;;;3.00;1.55;;;25.70;99.90;;;;;;4979399;28;20054;-82
2021/07/09 11:42:15;;;;;;;3.72;1.80;;;25.30;99.90;;;;;;4979434;28;20442;-83
2021/07/09 11:44:58;;;;;;;3.83;1.70;;;25.10;99.90;;;;;;4978699;28;20026;-83
2021/07/09 11:47:31;;;;;;;7.18;1.63;;;25.40;99.90;;;;;;4979182;28;20033;-83
2021/07/09 11:50:25;;;;;;;4.35;1.73;;;25.80;99.90;;;;;;4996831;28;20027;-83
2021/07/09 11:52:53;;;;;;;4.85;1.38;;;26.50;99.90;;;;;;4980050;28;20038;-83
2021/07/09 11:55:30;;;;;;;5.78;1.30;;;26.80;99.90;;;;;;4996730;28;20018;-83
2021/07/09 11:58:01;;;;;;;7.43;1.35;;;26.70;99.90;;;;;;4996993;28;20462;-83
2021/07/09 12:00:27;;;;;;;3.67;1.13;;;26.90;99.90;;;;;;4996445;28;20042;-82
2021/07/09 12:02:53;;;;;;;5.75;1.40;;;27.50;99.90;;;;;;4978647;28;20062;-83
2021/07/09 12:05:20;;;;;;;4.38;1.30;;;26.50;99.90;;;;;;4996281;28;20023;-83
2021/07/09 12:07:51;;;;;;;5.35;1.98;;;25.70;99.90;;;;;;4978737;28;20026;-83
2021/07/09 12:10:21;;;;;;;4.35;1.40;;;26.10;99.90;;;;;;4996222;28;20034;-83
2021/07/09 12:12:51;;;;;;;3.65;1.55;;;26.40;99.90;;;;;;4978860;28;20045;-83
2021/07/09 12:15:33;;;;;;;2.38;1.42;;;26.40;99.90;;;;;;4996349;28;20034;-84
2021/07/09 12:18:14;;;;;;;5.30;1.65;;;27.10;99.90;;;;;;4978673;28;20023;-83
2021/07/09 12:20:48;;;;;;;3.80;1.48;;;26.10;99.90;;;;;;4996315;28;20018;-83
2021/07/09 12:23:18;;;;;;;3.50;1.42;;;25.10;99.90;;;;;;4978643;28;20053;-83
2021/07/09 12:25:52;;;;;;;2.67;1.67;;;25.10;99.90;;;;;;4978569;28;20035;-83
2021/07/09 12:28:26;;;;;;;4.28;1.80;;;25.00;99.90;;;;;;4996380;28;20026;-83
2021/07/09 12:30:55;;;;;;;3.75;1.65;;;24.40;99.90;;;;;;4996363;28;20034;-83
2021/07/09 12:33:26;;;;;;;4.47;1.77;;;23.80;99.90;;;;;;4996101;28;20030;-83
2021/07/09 12:35:56;;;;;;;3.35;1.80;;;23.40;99.90;;;;;;4978740;28;20018;-83
2021/07/09 12:38:21;;;;;;;2.83;1.60;;;23.20;99.90;;;;;;4996633;28;20037;-83
2021/07/09 12:40:50;;;;;;;4.95;1.73;;;23.20;99.90;;;;;;4996173;28;20026;-82
2021/07/09 12:43:21;;;;;;;3.45;1.70;;;23.00;99.90;;;;;;4978714;28;20026;-83
2021/07/09 12:46:06;;;;;;;2.70;1.50;;;23.10;99.90;;;;;;4978522;28;20034;-82
2021/07/09 12:48:38;;;;;;;2.80;1.55;;;23.00;99.90;;;;;;4978448;28;20041;-83
2021/07/09 12:51:25;;;;;;;6.75;1.80;;;22.80;99.90;;;;;;4978527;28;20034;-83